Time;durP1;ratioP1;P1;durP2;ratioP2;P2;SDS_P1;SDS_P2;PMS_P1;PMS_P2;Temp;Humidity;BMP_temperature;BMP_pressure;BME280_temperature;BME280_humidity;BME280_pressure;Samples;Min_cycle;Max_cycle;Signal;HPM_P1;HPM_P2
2023/05/17 00:00:56;;;;;;;4.97;2.10;;;;;;;11.07;83.13;95700.75;5001180;28;20207;-89
2023/05/17 00:03:26;;;;;;;7.03;2.00;;;;;;;11.02;83.08;95701.28;4990058;28;20226;-88
2023/05/17 00:05:52;;;;;;;6.30;2.67;;;;;;;11.01;83.48;95701.47;4978744;28;20203;-88
2023/05/17 00:08:18;;;;;;;4.63;2.50;;;;;;;11.03;82.94;95710.63;4989654;28;20688;-88
2023/05/17 00:10:46;;;;;;;3.90;2.37;;;;;;;11.05;81.70;95702.72;4989880;28;20199;-90
2023/05/17 00:13:13;;;;;;;3.93;2.23;;;;;;;11.08;81.04;95712.66;4990116;28;20224;-88
2023/05/17 00:15:42;;;;;;;5.77;2.30;;;;;;;11.04;81.28;95709.66;4989299;28;20192;-88
2023/05/17 00:18:10;;;;;;;4.20;2.33;;;;;;;11.05;81.29;95710.44;4989665;28;20245;-90
2023/05/17 00:20:37;;;;;;;3.50;2.30;;;;;;;10.93;81.94;95722.16;4988943;28;20211;-90
2023/05/17 00:23:03;;;;;;;5.37;2.20;;;;;;;10.98;81.48;95719.84;4989346;28;20310;-90
2023/05/17 00:25:32;;;;;;;4.47;2.07;;;;;;;10.96;80.96;95717.47;4989734;28;20199;-89
2023/05/17 00:28:02;;;;;;;4.30;2.37;;;;;;;10.94;81.11;95716.03;4989626;28;20207;-88
2023/05/17 00:30:31;;;;;;;5.13;2.03;;;;;;;10.85;81.30;95723.03;4989177;28;20211;-88
2023/05/17 00:33:00;;;;;;;3.07;1.93;;;;;;;10.86;81.63;95732.34;4989437;28;20239;-90
2023/05/17 00:35:26;;;;;;;5.27;2.33;;;;;;;10.87;80.43;95728.81;4989438;28;20223;-88
2023/05/17 00:37:53;;;;;;;5.00;2.27;;;;;;;10.88;80.64;95729.59;4989722;28;20200;-89
2023/05/17 00:40:22;;;;;;;3.40;2.23;;;;;;;10.86;79.96;95734.94;4989484;28;20203;-88
2023/05/17 00:42:52;;;;;;;4.93;2.20;;;;;;;10.84;79.40;95734.31;4988828;28;20230;-87
2023/05/17 00:45:23;;;;;;;7.67;2.43;;;;;;;10.91;80.01;95735.22;4988603;28;20234;-88
2023/05/17 00:47:52;;;;;;;4.07;1.90;;;;;;;10.96;79.52;95740.66;4989369;28;20215;-90
2023/05/17 00:50:19;;;;;;;7.33;2.30;;;;;;;10.98;80.00;95733.53;4988573;28;20681;-88
2023/05/17 00:52:46;;;;;;;6.20;2.70;;;;;;;10.87;78.47;95733.16;4989091;28;20259;-90
2023/05/17 00:55:12;;;;;;;2.73;1.90;;;;;;;10.85;79.88;95742.81;4988983;28;20215;-90
2023/05/17 00:57:42;;;;;;;3.07;2.07;;;;;;;10.87;79.95;95735.72;4996922;28;20191;-91
2023/05/17 01:00:09;;;;;;;8.23;2.00;;;;;;;10.94;80.02;95739.22;5001401;28;20251;-90
2023/05/17 01:02:37;;;;;;;2.83;2.00;;;;;;;10.82;79.87;95736.25;4988510;28;20223;-90
2023/05/17 01:05:04;;;;;;;4.17;2.10;;;;;;;10.84;79.04;95734.31;4988551;28;20206;-90
2023/05/17 01:07:30;;;;;;;3.93;2.30;;;;;;;10.91;78.54;95731.84;4988606;28;20199;-90
2023/05/17 01:09:57;;;;;;;3.27;2.30;;;;;;;10.86;78.26;95734.13;4988683;28;20580;-88
2023/05/17 01:12:37;;;;;;;3.83;2.10;;;;;;;10.93;78.34;95735.03;4988536;28;20739;-88
2023/05/17 01:15:12;;;;;;;3.13;2.23;;;;;;;10.95;78.24;95735.66;4989148;28;20211;-90
2023/05/17 01:17:50;;;;;;;3.73;2.10;;;;;;;10.95;78.58;95745.97;4981820;28;20203;-89
2023/05/17 01:20:21;;;;;;;4.53;2.13;;;;;;;10.83;77.65;95742.19;4988564;28;20317;-89
2023/05/17 01:22:53;;;;;;;3.83;2.13;;;;;;;10.83;78.68;95737.84;4988370;28;20249;-90
2023/05/17 01:25:34;;;;;;;4.10;2.00;;;;;;;10.87;77.61;95746.03;4988436;28;20211;-90
2023/05/17 01:28:04;;;;;;;2.30;1.80;;;;;;;10.85;77.99;95747.97;4988509;28;20198;-90
2023/05/17 01:30:33;;;;;;;3.93;2.20;;;;;;;10.79;78.79;95749.47;4988169;28;20238;-90
2023/05/17 01:33:02;;;;;;;6.07;2.20;;;;;;;10.79;79.46;95756.38;4988234;28;20231;-88
2023/05/17 01:35:28;;;;;;;4.40;1.90;;;;;;;10.75;78.39;95755.97;4988045;28;20203;-88
2023/05/17 01:37:55;;;;;;;5.47;2.63;;;;;;;10.74;79.48;95756.94;4992612;28;20276;-88
2023/05/17 01:40:23;;;;;;;5.70;2.40;;;;;;;10.70;79.76;95755.66;5008126;28;20207;-88
2023/05/17 01:42:54;;;;;;;4.40;2.30;;;;;;;10.76;78.89;95761.91;5008327;28;20737;-89
2023/05/17 01:45:26;;;;;;;3.90;2.13;;;;;;;10.83;78.44;95758.47;4990612;28;20204;-90
2023/05/17 01:48:00;;;;;;;4.87;2.20;;;;;;;10.79;79.34;95756.38;4988465;28;20199;-91
2023/05/17 01:50:29;;;;;;;6.00;2.20;;;;;;;10.76;78.33;95762.72;4989098;28;20246;-90
2023/05/17 01:53:03;;;;;;;5.40;2.47;;;;;;;10.71;79.44;95755.50;4995218;28;20254;-91
2023/05/17 01:55:39;;;;;;;3.67;1.90;;;;;;;10.70;78.86;95766.78;4996241;28;20270;-90
2023/05/17 01:58:08;;;;;;;4.77;2.70;;;;;;;10.72;79.94;95762.25;4988579;28;20211;-90
2023/05/17 02:00:37;;;;;;;5.67;2.87;;;;;;;10.68;79.90;95762.75;4987351;28;20254;-90
2023/05/17 02:03:03;;;;;;;5.47;2.83;;;;;;;10.67;80.08;95763.75;4991403;28;20589;-90
2023/05/17 02:05:30;;;;;;;6.20;2.60;;;;;;;10.68;80.51;95762.75;4992021;28;20199;-91
2023/05/17 02:07:56;;;;;;;3.73;2.50;;;;;;;10.70;80.86;95771.94;4991980;28;20208;-91
2023/05/17 02:10:22;;;;;;;4.40;2.30;;;;;;;10.68;80.72;95762.75;4991020;28;20200;-90
2023/05/17 02:12:54;;;;;;;5.47;2.60;;;;;;;10.61;80.98;95767.00;4992165;28;20234;-88
2023/05/17 02:15:21;;;;;;;4.80;2.83;;;;;;;10.55;80.64;95768.50;4991701;28;20203;-89
2023/05/17 02:17:48;;;;;;;4.60;2.60;;;;;;;10.54;80.68;95774.63;4991841;28;20211;-91
2023/05/17 02:20:15;;;;;;;3.70;2.47;;;;;;;10.55;81.51;95772.84;4992037;28;20207;-90
2023/05/17 02:22:42;;;;;;;5.10;2.70;;;;;;;10.59;80.83;95777.47;4991571;28;20728;-90
2023/05/17 02:25:09;;;;;;;4.97;2.87;;;;;;;10.64;80.16;95771.81;4992083;28;20223;-90
2023/05/17 02:27:35;;;;;;;5.80;3.20;;;;;;;10.60;79.96;95771.34;4991612;28;20974;-90
2023/05/17 02:30:03;;;;;;;4.97;3.00;;;;;;;10.58;79.63;95781.00;4991816;28;20230;-89
2023/05/17 02:32:29;;;;;;;4.43;2.70;;;;;;;10.62;80.40;95779.69;4991489;28;20899;-89
2023/05/17 02:34:57;;;;;;;3.57;2.70;;;;;;;10.54;80.85;95776.38;4991336;28;20258;-88
2023/05/17 02:37:26;;;;;;;4.70;2.90;;;;;;;10.51;80.12;95780.09;4991205;28;20214;-88
2023/05/17 02:39:53;;;;;;;4.50;2.80;;;;;;;10.53;79.59;95775.59;4972352;28;20705;-89
2023/05/17 02:42:19;;;;;;;4.67;2.67;;;;;;;10.52;79.90;95779.13;4971533;28;20232;-88
2023/05/17 02:44:47;;;;;;;5.53;2.70;;;;;;;10.45;79.09;95778.19;4972500;28;20228;-89
2023/05/17 02:47:14;;;;;;;4.23;2.70;;;;;;;10.38;79.52;95783.25;4991391;28;20629;-89
2023/05/17 02:49:40;;;;;;;4.53;2.60;;;;;;;10.41;80.26;95784.66;4995851;28;20683;-89
2023/05/17 02:52:08;;;;;;;3.93;2.40;;;;;;;10.41;80.70;95779.50;4993973;28;20751;-88
2023/05/17 02:54:34;;;;;;;7.30;2.60;;;;;;;10.44;80.11;95791.25;4991240;28;20192;-88
2023/05/17 02:57:01;;;;;;;2.27;2.07;;;;;;;10.37;78.96;95786.78;4990601;28;20758;-89
2023/05/17 02:59:28;;;;;;;7.27;2.30;;;;;;;10.33;78.95;95782.16;4991286;28;20282;-89
2023/05/17 03:01:55;;;;;;;3.30;2.50;;;;;;;10.35;78.94;95787.94;4990668;28;20697;-88
2023/05/17 03:04:22;;;;;;;7.50;2.60;;;;;;;10.36;77.58;95792.91;4990941;28;20727;-89
2023/05/17 03:06:49;;;;;;;3.37;2.40;;;;;;;10.33;79.18;95795.03;4991077;28;20206;-89
2023/05/17 03:09:17;;;;;;;4.77;2.63;;;;;;;10.28;80.07;95795.53;4987749;28;20704;-89
2023/05/17 03:11:43;;;;;;;2.93;2.27;;;;;;;10.32;78.99;95807.09;4971262;28;20207;-88
2023/05/17 03:14:10;;;;;;;4.73;2.70;;;;;;;10.40;79.37;95806.22;4970717;28;20208;-88
2023/05/17 03:16:36;;;;;;;4.93;2.10;;;;;;;10.29;78.28;95809.19;4984665;28;20206;-89
2023/05/17 03:19:03;;;;;;;3.20;2.30;;;;;;;10.26;78.52;95815.47;4990452;28;20258;-88
2023/05/17 03:21:29;;;;;;;6.50;2.77;;;;;;;10.28;77.36;95817.88;4990197;28;20698;-89
2023/05/17 03:23:56;;;;;;;6.23;2.60;;;;;;;10.31;76.99;95822.69;4990374;28;20262;-89
2023/05/17 03:26:23;;;;;;;3.90;1.90;;;;;;;10.38;76.62;95818.47;4990644;28;20273;-89
2023/05/17 03:28:50;;;;;;;2.90;2.07;;;;;;;10.37;75.60;95822.81;4990636;28;20202;-89
2023/05/17 03:31:17;;;;;;;4.30;2.53;;;;;;;10.33;76.05;95826.69;4989553;28;20195;-88
2023/05/17 03:33:44;;;;;;;2.43;2.10;;;;;;;10.36;75.54;95828.13;4990519;28;20233;-89
2023/05/17 03:36:10;;;;;;;5.43;2.80;;;;;;;10.41;75.67;95833.56;4990739;28;20199;-88
2023/05/17 03:38:37;;;;;;;4.93;2.03;;;;;;;10.34;76.05;95838.59;5000041;28;20207;-88
2023/05/17 03:41:05;;;;;;;4.37;1.87;;;;;;;10.42;75.94;95840.31;4992996;28;20195;-88
2023/05/17 03:43:32;;;;;;;3.80;2.13;;;;;;;10.35;73.65;95845.34;4971099;28;20247;-88
2023/05/17 03:45:59;;;;;;;4.33;2.10;;;;;;;10.38;74.71;95849.38;4995799;28;20210;-88
2023/05/17 03:48:25;;;;;;;3.80;2.10;;;;;;;10.40;75.67;95852.56;4993469;28;20250;-88
2023/05/17 03:50:52;;;;;;;2.40;1.90;;;;;;;10.39;76.10;95856.13;4989250;28;20199;-88
2023/05/17 03:53:18;;;;;;;7.33;2.20;;;;;;;10.30;75.61;95850.19;4989644;28;20246;-87
2023/05/17 03:55:44;;;;;;;5.00;2.33;;;;;;;10.32;75.67;95858.56;4990579;28;20203;-86
2023/05/17 03:58:11;;;;;;;6.43;2.20;;;;;;;10.30;75.04;95862.25;4986457;28;20200;-88
2023/05/17 04:00:39;;;;;;;2.60;1.93;;;;;;;10.32;74.32;95866.28;4989094;28;20215;-87
2023/05/17 04:03:05;;;;;;;2.93;1.93;;;;;;;10.30;75.75;95875.13;4987866;28;20321;-87
2023/05/17 04:05:32;;;;;;;6.43;2.00;;;;;;;10.19;75.89;95880.66;4987634;28;20219;-88
2023/05/17 04:07:59;;;;;;;3.93;1.73;;;;;;;10.18;76.36;95877.25;4989178;28;20303;-88
2023/05/17 04:10:25;;;;;;;4.33;1.83;;;;;;;10.24;75.51;95891.22;4986253;28;20202;-88
2023/05/17 04:12:52;;;;;;;2.70;1.80;;;;;;;10.31;75.16;95887.03;4986291;28;20231;-88
2023/05/17 04:15:18;;;;;;;6.73;1.83;;;;;;;10.40;74.17;95883.44;4989022;28;20195;-88
2023/05/17 04:17:46;;;;;;;3.20;1.80;;;;;;;10.32;73.96;95892.00;4988921;28;20307;-89
2023/05/17 04:20:12;;;;;;;3.07;1.87;;;;;;;10.34;74.25;95900.38;4989015;28;20211;-88
2023/05/17 04:22:39;;;;;;;2.47;1.83;;;;;;;10.34;74.93;95902.94;4989629;28;20606;-88
2023/05/17 04:25:07;;;;;;;3.37;1.90;;;;;;;10.31;75.01;95903.28;4988392;28;20273;-89
2023/05/17 04:27:34;;;;;;;4.50;1.93;;;;;;;10.44;75.32;95905.31;4989291;28;20195;-88
2023/05/17 04:30:00;;;;;;;3.23;1.90;;;;;;;10.40;74.12;95901.44;4989445;28;20196;-88
2023/05/17 04:32:27;;;;;;;3.70;1.87;;;;;;;10.44;74.27;95904.50;4989103;28;20227;-89
2023/05/17 04:34:56;;;;;;;4.10;2.00;;;;;;;10.46;74.04;95910.28;4989883;28;20696;-88
2023/05/17 04:37:22;;;;;;;3.60;1.97;;;;;;;10.48;74.11;95913.50;4989294;28;20291;-89
2023/05/17 04:39:48;;;;;;;5.23;2.20;;;;;;;10.51;73.11;95918.31;5009272;28;20778;-86
2023/05/17 04:42:15;;;;;;;3.43;1.90;;;;;;;10.47;73.69;95920.41;5000489;28;20297;-87
2023/05/17 04:44:41;;;;;;;5.47;2.33;;;;;;;10.53;73.00;95924.09;5008686;28;20572;-88
2023/05/17 04:47:07;;;;;;;4.37;1.80;;;;;;;10.42;72.05;95925.25;5008462;28;20211;-88
2023/05/17 04:49:34;;;;;;;2.90;1.80;;;;;;;10.45;73.34;95918.97;5009049;28;20230;-88
2023/05/17 04:52:02;;;;;;;4.30;1.90;;;;;;;10.42;73.24;95925.25;5007014;28;20648;-87
2023/05/17 04:54:28;;;;;;;3.17;1.70;;;;;;;10.30;72.14;95924.03;4985747;28;20204;-88
2023/05/17 04:56:57;;;;;;;2.33;1.90;;;;;;;10.13;72.81;95930.16;4986449;28;20664;-88
2023/05/17 04:59:24;;;;;;;5.47;2.10;;;;;;;10.13;72.63;95922.44;4988542;28;20202;-88
2023/05/17 05:01:50;;;;;;;4.23;1.60;;;;;;;10.20;72.73;95939.66;4988052;28;20218;-87
2023/05/17 05:04:16;;;;;;;4.43;2.30;;;;;;;10.26;73.35;95931.28;4988728;28;20223;-88
2023/05/17 05:06:43;;;;;;;4.00;2.00;;;;;;;10.35;72.20;95939.78;4988458;28;20200;-87
2023/05/17 05:09:10;;;;;;;2.27;1.60;;;;;;;10.31;69.67;95943.66;4988681;28;20208;-88
2023/05/17 05:11:37;;;;;;;3.17;1.93;;;;;;;10.31;69.66;95941.88;4988607;28;20631;-88
2023/05/17 05:14:03;;;;;;;2.07;1.80;;;;;;;10.43;71.33;95942.31;4987728;28;20215;-87
2023/05/17 05:16:30;;;;;;;2.80;1.80;;;;;;;10.43;71.54;95944.88;4988621;28;20211;-87
2023/05/17 05:18:56;;;;;;;3.10;1.87;;;;;;;10.57;71.93;95948.56;4988815;28;20206;-88
2023/05/17 05:21:22;;;;;;;9.27;2.70;;;;;;;10.61;70.83;95944.66;4988339;28;20198;-88
2023/05/17 05:23:49;;;;;;;16.63;5.93;;;;;;;10.69;76.84;95950.59;4988567;28;20250;-87
2023/05/17 05:26:17;;;;;;;3.90;2.17;;;;;;;10.84;73.47;95947.28;4988645;28;20211;-88
2023/05/17 05:28:43;;;;;;;20.33;14.00;;;;;;;10.80;71.47;95951.16;4988305;28;20210;-87
2023/05/17 05:31:09;;;;;;;12.13;8.03;;;;;;;10.85;72.01;95951.47;4988862;28;20202;-88
2023/05/17 05:33:36;;;;;;;5.87;3.97;;;;;;;10.97;71.58;95952.69;4988832;28;20239;-88
2023/05/17 05:36:02;;;;;;;3.10;2.50;;;;;;;10.99;70.04;95953.31;4970208;28;20265;-88
2023/05/17 05:38:29;;;;;;;4.60;1.83;;;;;;;10.85;66.65;95962.56;5001534;28;20202;-87
2023/05/17 05:40:55;;;;;;;5.23;2.30;;;;;;;10.90;69.75;95965.47;4997235;28;20199;-88
2023/05/17 05:43:23;;;;;;;4.20;1.80;;;;;;;10.86;68.39;95965.94;4992361;28;20227;-88
2023/05/17 05:45:49;;;;;;;4.07;1.93;;;;;;;10.91;67.89;95968.84;4992389;28;20233;-88
2023/05/17 05:48:20;;;;;;;2.80;1.73;;;;;;;10.86;66.87;95968.53;4992232;28;20231;-88
2023/05/17 05:50:46;;;;;;;5.40;1.73;;;;;;;10.99;68.55;95958.47;4992254;28;20203;-87
2023/05/17 05:53:13;;;;;;;3.77;1.70;;;;;;;10.95;69.02;95970.09;4992011;28;20242;-87
2023/05/17 05:55:41;;;;;;;8.77;2.10;;;;;;;10.88;68.66;95957.09;4992017;28;20230;-88
2023/05/17 05:58:07;;;;;;;2.93;1.90;;;;;;;10.97;68.07;95953.47;4992186;28;20649;-88
2023/05/17 06:00:35;;;;;;;3.93;1.93;;;;;;;10.96;69.46;95954.47;4991851;28;20689;-87
2023/05/17 06:03:01;;;;;;;3.63;2.00;;;;;;;11.04;68.10;95959.56;4991484;28;20242;-88
2023/05/17 06:05:28;;;;;;;3.83;1.60;;;;;;;11.19;68.18;95969.94;4992130;28;20600;-88
2023/05/17 06:07:54;;;;;;;2.90;1.50;;;;;;;11.18;68.48;95964.97;4992088;28;20211;-88
2023/05/17 06:10:30;;;;;;;4.03;1.60;;;;;;;11.13;68.42;95975.00;4991885;28;20192;-87
2023/05/17 06:12:59;;;;;;;3.77;1.53;;;;;;;11.17;67.68;95974.47;4992498;28;20219;-88
2023/05/17 06:15:27;;;;;;;4.73;1.87;;;;;;;11.16;67.42;95978.00;4991832;28;20211;-88
2023/05/17 06:17:55;;;;;;;5.37;3.40;;;;;;;11.15;66.65;95981.59;4991832;28;20195;-87
2023/05/17 06:20:21;;;;;;;9.33;5.77;;;;;;;11.18;66.59;95981.22;4991609;28;20207;-88
2023/05/17 06:22:47;;;;;;;11.93;7.40;;;;;;;11.21;68.03;95985.25;4991975;28;20293;-88
2023/05/17 06:25:14;;;;;;;7.67;4.60;;;;;;;11.30;65.53;95984.25;4991624;28;20224;-88
2023/05/17 06:27:42;;;;;;;6.83;2.80;;;;;;;11.28;66.12;95991.34;4991618;28;20246;-88
2023/05/17 06:30:10;;;;;;;2.40;1.80;;;;;;;11.17;65.18;95983.97;4991393;28;20294;-89
2023/05/17 06:32:36;;;;;;;4.37;2.03;;;;;;;11.29;66.35;95986.00;4991521;28;20273;-88
2023/05/17 06:35:05;;;;;;;2.93;1.63;;;;;;;11.43;65.76;95984.47;4999159;28;20234;-88
2023/05/17 06:37:32;;;;;;;6.20;2.37;;;;;;;11.43;66.07;95984.47;5010790;28;20230;-87
2023/05/17 06:40:03;;;;;;;4.77;1.87;;;;;;;11.49;66.03;95986.38;5011616;28;20234;-88
2023/05/17 06:42:29;;;;;;;3.67;2.30;;;;;;;11.47;67.97;95988.31;5011171;28;20227;-89
2023/05/17 06:44:56;;;;;;;2.97;1.90;;;;;;;11.62;67.37;95993.50;5011024;28;20227;-88
2023/05/17 06:47:22;;;;;;;5.53;2.53;;;;;;;11.76;66.47;95997.94;5011239;28;20635;-88
2023/05/17 06:49:48;;;;;;;3.00;2.10;;;;;;;11.68;63.21;96003.97;5010787;28;20213;-88
2023/05/17 06:52:17;;;;;;;2.47;1.60;;;;;;;11.73;63.99;95993.94;5010385;28;20230;-87
2023/05/17 06:54:52;;;;;;;2.43;1.57;;;;;;;11.74;62.41;96000.66;4995950;28;20203;-87
2023/05/17 06:57:19;;;;;;;2.73;1.50;;;;;;;11.67;64.04;96004.94;4991140;28;20302;-88
2023/05/17 06:59:45;;;;;;;4.53;1.80;;;;;;;11.77;63.44;96008.09;4990958;28;20211;-87
2023/05/17 07:02:12;;;;;;;5.50;1.93;;;;;;;11.99;64.50;96003.09;4990341;28;20286;-88
2023/05/17 07:04:38;;;;;;;1.53;1.20;;;;;;;12.17;63.34;96002.75;4990593;28;20199;-87
2023/05/17 07:07:05;;;;;;;5.40;2.03;;;;;;;12.10;64.08;95998.31;4991138;28;20207;-86
2023/05/17 07:09:32;;;;;;;4.17;1.50;;;;;;;12.10;64.18;96013.00;4991528;28;20203;-89
2023/05/17 07:11:59;;;;;;;3.40;1.67;;;;;;;12.04;63.78;96011.13;4990889;28;20277;-88
2023/05/17 07:14:25;;;;;;;4.43;2.23;;;;;;;12.13;64.01;96012.63;4990874;28;20196;-87
2023/05/17 07:16:51;;;;;;;5.70;3.37;;;;;;;12.20;62.24;96008.38;4992482;28;20592;-87
2023/05/17 07:19:18;;;;;;;22.57;14.13;;;;;;;12.29;62.25;96011.69;4990629;28;20199;-88
2023/05/17 07:21:45;;;;;;;7.00;4.40;;;;;;;12.43;64.39;96019.44;4991465;28;20208;-88
2023/05/17 07:24:12;;;;;;;4.17;2.07;;;;;;;12.50;60.83;96013.59;4990694;28;20214;-88
2023/05/17 07:26:39;;;;;;;3.47;1.80;;;;;;;12.49;63.17;96017.16;4990605;28;20231;-88
2023/05/17 07:29:06;;;;;;;3.50;1.40;;;;;;;12.47;59.91;96008.78;4990409;28;20196;-88
2023/05/17 07:31:32;;;;;;;3.50;1.40;;;;;;;12.55;61.50;96017.22;4989984;28;20199;-89
2023/05/17 07:33:59;;;;;;;4.03;2.10;;;;;;;12.61;61.83;96026.06;4990458;28;20207;-88
2023/05/17 07:36:26;;;;;;;2.70;1.30;;;;;;;12.56;61.57;96020.59;4990983;28;20250;-88
2023/05/17 07:38:52;;;;;;;5.03;1.50;;;;;;;12.47;60.23;96021.69;5002132;28;20226;-88
2023/05/17 07:41:21;;;;;;;3.37;1.50;;;;;;;12.45;60.49;96027.03;5009596;28;20798;-88
2023/05/17 07:43:49;;;;;;;3.73;1.63;;;;;;;12.62;58.73;96023.28;5009860;28;20231;-88
2023/05/17 07:46:16;;;;;;;3.83;1.40;;;;;;;12.69;59.44;96025.97;5009522;28;20269;-87
2023/05/17 07:48:42;;;;;;;4.00;1.80;;;;;;;12.62;58.31;96020.72;5010139;28;20206;-88
2023/05/17 07:51:09;;;;;;;3.43;1.90;;;;;;;12.79;59.23;96027.28;4992322;28;20195;-89
2023/05/17 07:53:35;;;;;;;6.83;1.40;;;;;;;13.13;58.47;96028.50;4990269;28;20472;-89
2023/05/17 07:56:02;;;;;;;3.67;1.53;;;;;;;13.24;57.54;96022.09;4990326;28;20199;-88
2023/05/17 07:58:28;;;;;;;4.87;1.57;;;;;;;13.38;58.56;96027.22;4989526;28;20207;-88
2023/05/17 08:00:56;;;;;;;2.28;1.40;;;;;;;13.42;57.65;96028.47;4989529;28;20206;-88
2023/05/17 08:03:22;;;;;;;3.00;1.30;;;;;;;13.53;57.84;96027.19;4989379;28;20892;-89
2023/05/17 08:05:49;;;;;;;2.07;1.53;;;;;;;13.48;55.46;96027.72;4989931;28;20223;-88
2023/05/17 08:08:15;;;;;;;4.23;1.57;;;;;;;13.26;56.38;96036.47;4989950;28;20577;-89
2023/05/17 08:10:43;;;;;;;3.77;1.80;;;;;;;13.11;56.75;96020.91;4989324;28;20211;-89
2023/05/17 08:13:10;;;;;;;2.60;1.90;;;;;;;13.13;58.16;96026.72;4989762;28;20227;-88
2023/05/17 08:15:36;;;;;;;4.70;1.83;;;;;;;13.29;57.88;96030.09;4989551;28;20203;-89
2023/05/17 08:18:04;;;;;;;6.50;1.87;;;;;;;13.40;55.94;96027.84;4989910;28;20203;-88
2023/05/17 08:20:31;;;;;;;5.57;2.00;;;;;;;13.50;56.93;96027.53;4989483;28;20230;-89
2023/05/17 08:22:57;;;;;;;4.20;1.53;;;;;;;13.39;56.69;96028.84;4989638;28;20231;-89
2023/05/17 08:25:24;;;;;;;3.90;1.63;;;;;;;13.30;56.99;96036.88;4991388;28;20250;-88
2023/05/17 08:27:51;;;;;;;3.33;1.60;;;;;;;13.66;56.20;96037.66;5000991;28;20206;-88
2023/05/17 08:30:17;;;;;;;2.27;1.50;;;;;;;13.80;54.84;96038.59;5009121;28;20272;-87
2023/05/17 08:32:46;;;;;;;2.93;1.70;;;;;;;13.64;55.87;96042.22;5008560;28;20230;-88
2023/05/17 08:35:14;;;;;;;3.63;1.83;;;;;;;13.39;55.55;96044.34;5008921;28;20203;-88
2023/05/17 08:37:41;;;;;;;3.63;1.63;;;;;;;13.20;56.42;96037.16;5009042;28;20297;-88
2023/05/17 08:40:09;;;;;;;2.63;1.37;;;;;;;13.01;56.47;96046.25;5008606;28;20207;-89
2023/05/17 08:42:42;;;;;;;5.43;1.70;;;;;;;12.99;56.46;96043.06;5008162;28;20325;-88
2023/05/17 08:45:10;;;;;;;3.57;1.47;;;;;;;13.13;54.69;96037.06;5008880;28;20221;-88
2023/05/17 08:47:39;;;;;;;3.13;1.60;;;;;;;13.56;55.05;96044.13;5008758;28;20290;-88
2023/05/17 08:50:06;;;;;;;4.07;1.53;;;;;;;13.94;54.88;96040.31;5008707;28;20206;-88
2023/05/17 08:52:37;;;;;;;3.53;1.60;;;;;;;14.11;54.11;96039.06;5008623;28;20313;-89
2023/05/17 08:55:04;;;;;;;4.40;1.57;;;;;;;14.44;53.42;96038.53;4988485;28;20207;-88
2023/05/17 08:57:36;;;;;;;3.13;1.35;;;;;;;14.66;52.33;96032.28;4989057;28;20200;-89
2023/05/17 09:00:17;;;;;;;2.72;1.48;;;;;;;14.84;50.14;96032.59;4989212;28;20200;-89
2023/05/17 09:02:43;;;;;;;3.83;1.90;;;;;;;14.81;49.92;96038.19;4988569;28;20230;-88
2023/05/17 09:05:25;;;;;;;4.57;2.03;;;;;;;14.94;50.69;96042.63;4989046;28;20627;-88
2023/05/17 09:07:56;;;;;;;17.50;12.77;;;;;;;15.11;50.16;96043.91;4986018;28;20215;-88
2023/05/17 09:10:22;;;;;;;5.63;2.40;;;;;;;15.04;49.09;96055.22;4988716;28;20207;-88
2023/05/17 09:12:53;;;;;;;3.88;1.83;;;;;;;15.24;48.87;96057.91;4988599;28;20301;-89
2023/05/17 09:15:22;;;;;;;3.67;1.70;;;;;;;15.45;49.52;96058.59;4988550;28;20261;-88
2023/05/17 09:17:52;;;;;;;2.92;1.58;;;;;;;15.61;47.50;96065.25;4989125;28;20283;-88
2023/05/17 09:20:23;;;;;;;2.85;1.70;;;;;;;15.80;48.38;96061.91;4988046;28;20219;-88
2023/05/17 09:22:50;;;;;;;4.28;1.48;;;;;;;15.73;47.89;96058.50;4993849;28;20242;-88
2023/05/17 09:25:21;;;;;;;1.77;1.40;;;;;;;15.71;48.45;96065.69;4999869;28;20265;-88
2023/05/17 09:27:49;;;;;;;3.33;1.67;;;;;;;16.05;46.67;96063.94;5008286;28;20207;-89
2023/05/17 09:30:15;;;;;;;2.67;1.52;;;;;;;15.71;45.81;96063.09;5008100;28;20203;-89
2023/05/17 09:32:52;;;;;;;2.83;1.50;;;;;;;15.05;46.66;96054.22;5007678;28;20234;-88
2023/05/17 09:35:29;;;;;;;1.92;1.20;;;;;;;14.93;48.96;96066.16;5008079;28;20771;-88
2023/05/17 09:37:58;;;;;;;3.92;1.83;;;;;;;15.37;47.47;96061.38;5008026;28;20202;-88
2023/05/17 09:40:26;;;;;;;5.30;3.70;;;;;;;15.74;45.88;96057.50;5008610;28;20202;-87
2023/05/17 09:43:03;;;;;;;6.55;4.50;;;;;;;16.16;47.40;96051.16;5007970;28;20939;-89
2023/05/17 09:45:31;;;;;;;2.45;1.58;;;;;;;16.39;46.17;96060.34;5007926;28;20423;-89
2023/05/17 09:47:58;;;;;;;4.28;1.50;;;;;;;16.45;45.02;96054.34;5008423;28;20320;-88
2023/05/17 09:50:25;;;;;;;5.80;1.70;;;;;;;16.65;44.91;96057.75;4995795;28;20806;-88
2023/05/17 09:53:01;;;;;;;;;;;;;;;;;;;;;
2023/05/17 09:56:12;;;;;;;5.30;1.50;;;;;;;17.03;45.04;96054.47;4968857;28;20195;-88
2023/05/17 09:58:38;;;;;;;5.20;1.42;;;;;;;16.56;45.00;96059.72;4967128;28;20703;-89
2023/05/17 10:04:27;;;;;;;3.33;1.25;;;;;;;16.37;44.85;96054.53;4977673;28;20614;-89
2023/05/17 10:06:56;;;;;;;3.20;1.92;;;;;;;16.59;43.80;96046.31;4988338;28;20227;-89
2023/05/17 10:09:23;;;;;;;3.08;1.70;;;;;;;16.32;45.19;96051.78;4987676;28;20723;-91
2023/05/17 10:17:25;;;;;;;2.67;1.60;;;;;;;16.06;43.02;96045.56;4971612;28;20240;-92
2023/05/17 10:19:53;;;;;;;3.35;1.48;;;;;;;16.45;43.56;96047.34;4880397;29;20642;-93
2023/05/17 10:22:29;;;;;;;17.48;12.52;;;;;;;16.72;44.56;96034.34;4925600;28;20287;-92
2023/05/17 10:25:03;;;;;;;20.08;15.40;;;;;;;16.84;43.70;96041.31;4975592;28;20703;-91
2023/05/17 10:27:49;;;;;;;;;;;;;;;;;;;;;
2023/05/17 10:30:29;;;;;;;5.35;2.03;;;;;;;16.65;47.30;96041.38;4974933;28;20308;-89
2023/05/17 10:32:58;;;;;;;3.60;1.83;;;;;;;16.57;42.54;96035.34;4976014;28;20220;-83
2023/05/17 10:35:27;;;;;;;3.35;1.90;;;;;;;16.29;45.02;96036.56;4962080;28;20747;-87
2023/05/17 10:37:53;;;;;;;4.18;1.90;;;;;;;16.37;49.85;96038.94;4956835;28;20292;-84
2023/05/17 10:54:17;;;;;;;3.70;2.35;;;;;;;17.09;38.91;96038.06;4824218;29;20805;-90
2023/05/17 11:11:02;;;;;;;4.60;3.35;;;;;;;16.75;42.79;96021.72;4898222;29;20174;-90
2023/05/17 11:19:35;;;;;;;37.33;32.15;;;;;;;16.58;40.65;96017.94;4913511;28;20324;-90
2023/05/17 11:28:35;;;;;;;;;;;;;;;;;;;;;
2023/05/17 11:31:15;;;;;;;5.80;3.72;;;;;;;16.59;43.77;96012.53;4935461;28;20262;-91
2023/05/17 11:33:46;;;;;;;4.85;2.60;;;;;;;16.68;42.60;96010.56;4954558;28;20311;-89
2023/05/17 11:36:51;;;;;;;3.38;2.10;;;;;;;16.58;41.83;96010.94;4955638;29;20718;-89
2023/05/17 11:45:49;;;;;;;3.55;1.63;;;;;;;16.98;41.06;96017.84;4992642;28;20215;-89
2023/05/17 11:48:19;;;;;;;1.95;1.60;;;;;;;16.93;43.13;96021.09;4994406;28;20367;-90
2023/05/17 11:50:55;;;;;;;3.13;1.60;;;;;;;17.24;41.12;96018.56;4995000;28;20564;-89
2023/05/17 11:53:27;;;;;;;3.80;1.50;;;;;;;17.36;41.50;96017.91;4979381;28;20266;-90
2023/05/17 11:56:02;;;;;;;2.15;1.58;;;;;;;17.17;42.49;96024.78;4974673;28;20303;-90
2023/05/17 11:59:26;;;;;;;3.88;1.83;;;;;;;16.71;42.24;96022.34;4975064;28;20716;-89
2023/05/17 12:09:01;;;;;;;5.40;4.63;;;;;;;15.94;44.70;96020.38;4953688;28;20230;-90
2023/05/17 12:15:25;;;;;;;4.15;2.88;;;;;;;15.99;43.77;96015.38;4934836;29;20283;-91
2023/05/17 12:18:20;;;;;;;2.70;1.75;;;;;;;16.22;41.70;96013.19;4969206;28;20224;-90
2023/05/17 12:23:57;;;;;;;3.53;2.17;;;;;;;17.15;41.79;96026.81;4970856;28;20789;-90
2023/05/17 12:26:25;;;;;;;2.10;1.75;;;;;;;16.95;42.66;96020.88;4972811;28;20235;-90
2023/05/17 12:29:01;;;;;;;4.43;2.85;;;;;;;16.63;43.52;96019.94;4974429;28;20279;-90
2023/05/17 12:34:58;;;;;;;5.47;2.40;;;;;;;16.07;43.75;96018.59;4975293;28;20211;-90
2023/05/17 12:38:12;;;;;;;4.25;3.00;;;;;;;15.98;44.86;96024.16;4974269;28;20203;-90
2023/05/17 12:41:02;;;;;;;3.28;2.33;;;;;;;15.90;43.29;96032.97;4973555;28;20685;-89
2023/05/17 12:44:01;;;;;;;5.10;3.35;;;;;;;16.03;43.04;96032.97;4972436;28;20599;-90
2023/05/17 12:46:37;;;;;;;26.35;20.80;;;;;;;15.97;41.66;96025.97;4974025;28;20220;-90
2023/05/17 12:49:17;;;;;;;5.88;4.65;;;;;;;16.30;42.19;96027.78;4974249;28;20180;-89
2023/05/17 12:51:47;;;;;;;3.30;2.28;;;;;;;16.30;39.39;96022.59;4972965;28;20674;-90
2023/05/17 12:54:26;;;;;;;5.25;2.95;;;;;;;16.48;39.19;96013.16;4973685;28;20204;-90
2023/05/17 13:03:53;;;;;;;6.40;5.30;;;;;;;16.01;42.80;96021.16;4944499;28;20315;-91
2023/05/17 13:06:29;;;;;;;5.20;4.13;;;;;;;15.85;43.71;96017.97;4914794;28;20249;-91